Tiempo atmosférico en la estación meteorológica de Fuentesauco, Zamora (811 m.)



Fecha
DESCASC
Temp. máxima en grados centígrados (hora)
DESCASC
Temp. mínima en grados centígrados (hora)
DESCASC
Temp. media en grados centígrados
DESCASC
Racha de viento máxima en m/sg (hora)
DESCASC
Velocidad máxima media en intervalos de 10 minutos(hora)
DESCASC
Precipitaciones diarias en mm
DESCASC
Precipitaciones de 00:00 a 06:00 en mm
DESCASC
Precipitaciones de 06:00 a 12:00 en mm
DESCASC
Precipitaciones de 12:00 a 18:00 en mm
DESCASC
Precipitaciones de 18:00 a 24:00 en mm
DESCASC
20-09-2018 30.9 (16:30) 13.5 (08:10) 22.2 11.11 (14:40) 6.39 (14:10) 0 0 0 0 0
19-09-2018 30.1 (17:10) 13.1 (07:50) 21.6 8.89 (16:20) 5.28 (16:20) 0 0 0 0 0
18-09-2018 29 (17:00) 15.9 (08:20) 22.4 8.89 (17:10) 6.67 (19:10) 0 0 0 0 0
17-09-2018 29.8 (15:00) 14.3 (07:50) 22 12.78 (17:00) 8.33 (17:00) 0 0 0 0 0
16-09-2018 31.4 (16:10) 16.1 (00:00) 23.8 10.28 (13:50) 4.72 (19:20) 0 0 0 0 0
15-09-2018 29.8 (17:20) 12.8 (00:00) 21.3 6.39 (17:20) 4.17 (02:30) 0 0 0 0 0
14-09-2018 31.1 (17:30) 12.7 (00:00) 21.9 6.11 (16:50) 3.89 (17:00) 0 0 0 0 0
13-09-2018 30.6 (16:40) 13 (00:00) 21.8 8.33 (15:30) 4.44 (16:30) 0 0 0 0 0
12-09-2018 30.2 (17:50) 12.8 (00:00) 21.5 6.67 (18:30) 4.44 (18:30) 0 0 0 0 0
11-09-2018 28.2 (16:50) 12.6 (00:00) 20.4 9.72 (22:20) 5.83 (22:20) 0 0 0 0 0
10-09-2018 26.9 (17:30) 12.3 (00:00) 19.6 6.67 (14:30) 3.33 (13:10) 0 0 0 0 0
09-09-2018 26.9 (17:30) 12.7 (00:00) 19.8 6.39 (17:50) 4.72 (02:30) 0 0 0 0 0
08-09-2018 24.8 (16:30) 12.9 (00:00) 18.8 11.39 (01:50) 8.33 (19:00) 3 2.6 0 0 0.4
07-09-2018 26 (17:50) 12.1 (00:00) 19.1 12.5 (21:40) 8.89 (21:40) 7.6 0 0 0 7.6
06-09-2018 24.5 (18:10) 13.3 (00:00) 18.9 9.17 (14:40) 6.11 (23:30) 0 0 0 0 0
05-09-2018 22.5 (14:20) 14.3 (00:00) 18.4 7.78 (15:10) 5 (11:50) 0.4 0 0 0.4 0
04-09-2018 27 (17:20) 11.6 (00:00) 19.3 11.39 (20:20) 6.67 (20:40) 4.2 0 0 0 4.2
03-09-2018 29.9 (18:40) 18.7 (00:00) 24.3 21.67 (00:30) 6.39 (00:30) 23 23 0 0 0
02-09-2018 33.9 (18:00) 15.6 (00:00) 24.8 11.67 (19:50) 4.44 (19:50) 0 0 0 0 0
01-09-2018 31.5 (17:40) 13.6 (00:00) 22.6 6.94 (16:40) 4.44 (16:40) 0 0 0 0 0
31-08-2018 29.8 (17:40) 12.9 (00:00) 21.3 6.94 (13:30) 3.89 (13:20) 0 0 0 0 0
30-08-2018 30.2 (17:00) 12.4 (00:00) 21.3 6.11 (00:40) 4.44 (00:40) 0 0 0 0 0
29-08-2018 29.1 (17:30) 14.1 (00:00) 21.6 6.39 (09:00) 4.72 (09:10) 0 0 0 0 0
28-08-2018 30.3 (15:50) 20.6 (00:00) 25.4 12.22 (14:00) 8.61 (10:50) 0 0 0 0 0
27-08-2018 33.3 (15:20) 13.3 (00:00) 23.3 13.33 (17:40) 9.44 (17:40) 0 0 0 0 0
26-08-2018 31 (18:50) 10.6 (00:00) 20.8 7.5 (16:20) 4.17 (19:20) 0 0 0 0 0
25-08-2018 27.4 (18:40) 10.5 (00:00) 18.9 10.56 (17:00) 5 (01:50) 0 0 0 0 0
24-08-2018 29.9 (17:20) 13 (00:00) 21.4 11.39 (16:50) 5.83 (00:10) 0 0 0 0 0
23-08-2018 32.6 (17:10) 16.9 (00:00) 24.7 9.17 (17:50) 6.39 (23:50) 0 0 0 0 0

Gráficas

Temp. máximas Temp. mínimas Temp. medias Precipitaciones Rachas de viento máximas Velocidades máximas media en intervalos de 10 minutos

Datos horarios

Fecha y hora oficial Temperatura (ºC) Velocidad del viento (km/h) Dirección del viento Racha (km/h) Dirección de racha Precipitación (mm) Presión (hPa) Tendencia (hPa) Humedad (%)
2018-09-21 23:00:00 17.1 3 Oeste 6 Sur 0 -- -- 37
2018-09-21 22:00:00 19 3 Sudoeste 7 Nordeste 0 -- -- 34
2018-09-21 21:00:00 21.7 5 Nordeste 8 Noroeste 0 -- -- 29
2018-09-21 20:00:00 25.3 6 Noroeste 14 Oeste 0 -- -- 25
2018-09-21 19:00:00 27.7 7 Oeste 20 Oeste 0 -- -- 24
2018-09-21 18:00:00 28.1 12 Oeste 23 Oeste 0 -- -- 27
2018-09-21 17:00:00 28.1 12 Noroeste 27 Noroeste 0 -- -- 29
2018-09-21 16:00:00 27.5 10 Norte 26 Oeste 0 -- -- 31
2018-09-21 15:00:00 27.6 10 Noroeste 19 Noroeste 0 -- -- 33
2018-09-21 14:00:00 25.5 7 Nordeste 17 Norte 0 -- -- 36
2018-09-21 13:00:00 24.5 7 Sudoeste 17 Oeste 0 -- -- 39
2018-09-21 12:00:00 23.6 5 Noroeste 15 Oeste 0 -- -- 43
2018-09-21 11:00:00 21.3 9 Oeste 17 Sudoeste 0 -- -- 50
2018-09-21 10:00:00 18.3 10 Sudoeste 15 Sudoeste 0 -- -- 57
2018-09-21 09:00:00 15.2 8 Oeste 17 Oeste 0 -- -- 65
2018-09-21 08:00:00 13.1 6 Sudoeste 12 Oeste 0 -- -- 69
2018-09-21 07:00:00 13.6 11 Sudoeste 17 Sudoeste 0 -- -- 66
2018-09-21 06:00:00 14.6 6 Sudoeste 17 Oeste 0 -- -- 62
2018-09-21 05:00:00 15.2 10 Sudoeste 18 Sudoeste 0 -- -- 58
2018-09-21 04:00:00 15.4 8 Sudoeste 14 Sudoeste 0 -- -- 55
2018-09-21 03:00:00 16.2 7 Oeste 13 Sudoeste 0 -- -- 55
2018-09-21 02:00:00 17.5 6 Sudoeste 10 Sudoeste 0 -- -- 47
2018-09-21 01:00:00 18.7 3 Sur 12 Oeste 0 -- -- 42
2018-09-21 00:00:00 20.4 9 Oeste 13 Oeste 0 -- -- 37
2018-09-20 23:00:00 21.7 8 Oeste 18 Noroeste 0 -- -- 43
2018-09-20 22:00:00 23.1 10 Oeste 21 Oeste 0 -- -- 43
2018-09-20 21:00:00 24.7 8 Oeste 16 Oeste 0 -- -- 40
2018-09-20 20:00:00 27 12 Oeste 27 Noroeste 0 -- -- 36
2018-09-20 19:00:00 28.8 19 Oeste 32 Oeste 0 -- -- 33
2018-09-20 18:00:00 30.2 15 Oeste 37 Oeste 0 -- -- 28
2018-09-20 17:00:00 30.4 19 Oeste 37 Oeste 0 -- -- 27
2018-09-20 16:00:00 30.4 19 Oeste 35 Oeste 0 -- -- 27
2018-09-20 15:00:00 30.1 18 Oeste 40 Oeste 0 -- -- 27
2018-09-20 14:00:00 28.8 21 Sudoeste 34 Sudoeste 0 -- -- 32
2018-09-20 13:00:00 28.2 13 Sudoeste 24 Sudoeste 0 -- -- 32
2018-09-20 12:00:00 26.7 6 Este 14 Este 0 -- -- 34
2018-09-20 11:00:00 24.2 3 Sudeste 8 Sur 0 -- -- 39
2018-09-20 10:00:00 19.6 2 Sudoeste 4 Sur 0 -- -- 48
2018-09-20 09:00:00 14.3 3 Sudoeste 4 Sudoeste 0 -- -- 63
2018-09-20 08:00:00 13.8 3 Sudoeste 5 Sudoeste 0 -- -- 61
2018-09-20 07:00:00 14.5 3 Sudoeste 9 Sudoeste 0 -- -- 59
2018-09-20 06:00:00 14.1 4 Sudoeste 7 Sudoeste 0 -- -- 57
2018-09-20 05:00:00 15.4 4 Sudoeste 6 Sudoeste 0 -- -- 55
2018-09-20 04:00:00 16.4 3 Sur 5 Sudoeste 0 -- -- 51
2018-09-20 03:00:00 18 5 Sudoeste 10 Oeste 0 -- -- 48
2018-09-20 02:00:00 19.5 2 Oeste 9 Noroeste 0 -- -- 45
2018-09-20 01:00:00 18.9 3 Sudoeste 6 Oeste 0 -- -- 44
2018-09-20 00:00:00 20.4 3 Sudoeste 9 Noroeste 0 -- -- 42
2018-09-19 23:00:00 21.4 4 Sudoeste 9 Sur 0 -- -- 38
2018-09-19 22:00:00 22.4 3 Sudoeste 6 Sudoeste 0 -- -- 36
2018-09-19 21:00:00 25.3 4 Sudoeste 9 Oeste 0 -- -- 33
2018-09-19 20:00:00 28.5 8 Oeste 14 Oeste 0 -- -- 30
2018-09-19 19:00:00 29.2 11 Sudoeste 24 Sudoeste 0 -- -- 29
2018-09-19 18:00:00 29.5 6 Sur 23 Oeste 0 -- -- 28
2018-09-19 17:00:00 29.8 9 Oeste 32 Sudoeste 0 -- -- 28
2018-09-19 16:00:00 29.3 10 Sudoeste 29 Sudoeste 0 -- -- 27
2018-09-19 15:00:00 28.7 17 Sudoeste 31 Sudoeste 0 -- -- 31
2018-09-19 14:00:00 27.4 11 Sudoeste 22 Sudoeste 0 -- -- 37
2018-09-19 13:00:00 25.7 4 Nordeste 11 Este 0 -- -- 41
2018-09-19 12:00:00 23.5 3 Este 9 Nordeste 0 -- -- 44
2018-09-19 11:00:00 20.9 5 Norte 12 Norte 0 -- -- 50
2018-09-19 10:00:00 18.4 10 Norte 13 Noroeste 0 -- -- 58
2018-09-19 09:00:00 14.5 0 Calma 4 Oeste 0 -- -- 67
2018-09-19 08:00:00 13.2 0 Calma 5 Sudoeste 0 -- -- 70
2018-09-19 07:00:00 13.5 3 Sudoeste 4 Sudoeste 0 -- -- 69
2018-09-19 06:00:00 13.9 2 Sudoeste 4 Sudoeste 0 -- -- 68
2018-09-19 05:00:00 14.6 2 Sudoeste 4 Oeste 0 -- -- 68
2018-09-19 04:00:00 15.9 2 Sudoeste 7 Noroeste 0 -- -- 63
2018-09-19 03:00:00 16.2 3 Norte 6 Norte 0 -- -- 62
2018-09-19 02:00:00 17.7 4 Sudoeste 5 Noroeste 0 -- -- 59
2018-09-19 01:00:00 18.2 2 Noroeste 9 Oeste 0 -- -- 58
2018-09-19 00:00:00 18.5 3 Sur 7 Sudoeste 0 -- -- 61
2018-09-18 23:00:00 20.2 4 Sudoeste 10 Sudoeste 0 -- -- 57
2018-09-18 22:00:00 21.3 5 Sudoeste 17 Sudoeste 0 -- -- 54
2018-09-18 21:00:00 22.5 12 Sudoeste 22 Sur 0 -- -- 50
2018-09-18 20:00:00 23.9 17 Sur 32 Sur 0 -- -- 46
2018-09-18 19:00:00 25.7 20 Sudoeste 30 Oeste 0 -- -- 43
2018-09-18 18:00:00 28.4 14 Oeste 32 Oeste 0 -- -- 33
2018-09-18 17:00:00 29 14 Oeste 31 Oeste 0 -- -- 33
2018-09-18 16:00:00 28.6 14 Oeste 27 Oeste 0 -- -- 33
2018-09-18 15:00:00 27.7 12 Oeste 25 Sudoeste 0 -- -- 36
2018-09-18 14:00:00 27.1 13 Sudoeste 23 Sudoeste 0 -- -- 37
2018-09-18 13:00:00 26.5 8 Sudoeste 19 Sudoeste 0 -- -- 38
2018-09-18 12:00:00 24.9 11 Sudoeste 23 Sudoeste 0 -- -- 39
2018-09-18 11:00:00 23.2 9 Oeste 19 Oeste 0 -- -- 41
2018-09-18 10:00:00 20.4 7 Oeste 10 Sudoeste 0 -- -- 49
2018-09-18 09:00:00 16.8 4 Sudoeste 11 Oeste 0 -- -- 65
2018-09-18 08:00:00 16.1 6 Sudoeste 15 Sudoeste 0 -- -- 68
2018-09-18 07:00:00 16.8 7 Sudoeste 20 Sudoeste 0 -- -- 67
2018-09-18 06:00:00 17.6 9 Sudoeste 13 Sudoeste 0 -- -- 62
2018-09-18 05:00:00 17.2 7 Sudoeste 12 Sudoeste 0 -- -- 63
2018-09-18 04:00:00 18.7 6 Sudoeste 9 Sur 0 -- -- 59
2018-09-18 03:00:00 19.7 5 Sudoeste 8 Sudoeste 0 -- -- 57
2018-09-18 02:00:00 20.6 2 Sudoeste 13 Oeste 0 -- -- 56
2018-09-18 01:00:00 21.2 6 Oeste 14 Oeste 0 -- -- 57
2018-09-18 00:00:00 22.3 11 Oeste 19 Sudoeste 0 -- -- 51
2018-09-17 23:00:00 22.1 10 Sudoeste 18 Sudoeste 0 -- -- 50
2018-09-17 22:00:00 22.8 0 Calma 19 Oeste 0 -- -- 45
2018-09-17 21:00:00 23.7 13 Oeste 24 Oeste 0 -- -- 44
2018-09-17 20:00:00 26.6 12 Noroeste 30 Noroeste 0 -- -- 36
2018-09-17 19:00:00 28.5 11 Noroeste 18 Oeste 0 -- -- 32
2018-09-17 18:00:00 27.1 14 Oeste 38 Oeste 0 -- -- 31
2018-09-17 17:00:00 26.6 30 Oeste 46 Oeste 0 -- -- 36
2018-09-17 16:00:00 29.7 12 Oeste 23 Oeste 0 -- -- 28
2018-09-17 15:00:00 29.8 15 Oeste 24 Sudoeste 0 -- -- 28
2018-09-17 14:00:00 29.3 18 Oeste 28 Oeste 0 -- -- 28
2018-09-17 13:00:00 28.3 15 Sur 24 Sudoeste 0 -- -- 31
2018-09-17 12:00:00 26.9 8 Sur 16 Sudeste 0 -- -- 37
2018-09-17 11:00:00 24.3 3 Norte 9 Noroeste 0 -- -- 44
2018-09-17 10:00:00 20.9 3 Nordeste 10 Norte 0 -- -- 50
2018-09-17 09:00:00 16.6 2 Sudeste 5 Sudeste 0 -- -- 61
2018-09-17 08:00:00 14.7 2 Sudoeste 4 Sur 0 -- -- 69
2018-09-17 07:00:00 15.2 0 Calma 7 Sudoeste 0 -- -- 63
2018-09-17 06:00:00 16.2 4 Sudoeste 5 Sudoeste 0 -- -- 56
2018-09-17 05:00:00 17 2 Sudoeste 6 Sudoeste 0 -- -- 59
2018-09-17 04:00:00 18.1 4 Sudoeste 10 Sudoeste 0 -- -- 60
2018-09-17 03:00:00 18.7 8 Sudoeste 12 Sudoeste 0 -- -- 58
2018-09-17 02:00:00 19 4 Sudoeste 8 Sudoeste 0 -- -- 55
2018-09-17 01:00:00 20.1 7 Sudoeste 11 Sudoeste 0 -- -- 53
2018-09-17 00:00:00 20.9 8 Sudoeste 11 Sudoeste 0 -- -- 51
2018-09-16 23:00:00 22.3 4 Sudoeste 9 Oeste 0 -- -- 46
2018-09-16 22:00:00 23 5 Sudoeste 10 Sudoeste 0 -- -- 45
2018-09-16 21:00:00 24.9 8 Sudoeste 14 Sudoeste 0 -- -- 40
2018-09-16 20:00:00 27.1 9 Sudoeste 21 Oeste 0 -- -- 34
2018-09-16 19:00:00 28.9 11 Oeste 17 Oeste 0 -- -- 31
2018-09-16 18:00:00 29.5 11 Noroeste 23 Noroeste 0 -- -- 29
2018-09-16 17:00:00 30.6 14 Noroeste 22 Noroeste 0 -- -- 27
2018-09-16 16:00:00 31.2 9 Norte 23 Sudoeste 0 -- -- 25
2018-09-16 15:00:00 30 11 Oeste 24 Sudoeste 0 -- -- 27
2018-09-16 14:00:00 29.1 13 Oeste 37 Oeste 0 -- -- 33
2018-09-16 13:00:00 27.9 8 Sudoeste 21 Sudoeste 0 -- -- 37
2018-09-16 12:00:00 26.6 8 Sudoeste 15 Sudoeste 0 -- -- 43
2018-09-16 11:00:00 24.1 7 Oeste 15 Oeste 0 -- -- 51
2018-09-16 10:00:00 21 7 Oeste 14 Sudoeste 0 -- -- 57
2018-09-16 09:00:00 16.9 5 Sudoeste 17 Sudoeste 0 -- -- 70
2018-09-16 08:00:00 16.2 10 Sudoeste 17 Sudoeste 0 -- -- 73
2018-09-16 07:00:00 16.3 11 Sudoeste 16 Oeste 0 -- -- 73
2018-09-16 06:00:00 16.5 9 Sudoeste 14 Sudoeste 0 -- -- 71
2018-09-16 05:00:00 17.6 3 Sudoeste 15 Sudoeste 0 -- -- 66
2018-09-16 04:00:00 18.1 10 Sudoeste 15 Sudoeste 0 -- -- 63
2018-09-16 03:00:00 18.6 5 Sudoeste 16 Sudoeste 0 -- -- 61
2018-09-16 02:00:00 18.7 6 Sudoeste 13 Sudoeste 0 -- -- 61
2018-09-16 01:00:00 19.5 8 Sudoeste 12 Sudoeste 0 -- -- 58
2018-09-16 00:00:00 20 7 Sudoeste 14 Sudoeste 0 -- -- 56
2018-09-15 23:00:00 20.9 9 Sudoeste 12 Sudoeste 0 -- -- 56
2018-09-15 22:00:00 20.9 2 Sudoeste 4 Sudoeste 0 -- -- 43
2018-09-15 21:00:00 23.4 0 Calma 5 Este 0 -- -- 39
2018-09-15 20:00:00 26.3 4 Este 10 Nordeste 0 -- -- 34
2018-09-15 19:00:00 28.4 8 Nordeste 16 Norte 0 -- -- 30
2018-09-15 18:00:00 29 5 Oeste 23 Norte 0 -- -- 30
2018-09-15 17:00:00 29.3 6 Noroeste 22 Nordeste 0 -- -- 30
2018-09-15 16:00:00 29.5 9 Norte 15 Norte 0 -- -- 32
2018-09-15 15:00:00 27.4 8 Nordeste 17 Nordeste 0 -- -- 39
2018-09-15 14:00:00 25.7 9 Nordeste 18 Nordeste 0 -- -- 44
2018-09-15 13:00:00 23.3 7 Norte 13 Nordeste 0 -- -- 52
2018-09-15 12:00:00 20.9 8 Norte 14 Nordeste 0 -- -- 62
2018-09-15 11:00:00 18.4 9 Norte 13 Noroeste 0 -- -- 70
2018-09-15 10:00:00 16.5 8 Norte 13 Norte 0 -- -- 79
2018-09-15 09:00:00 13.7 0 Calma 3 Sudoeste 0 -- -- 85
2018-09-15 08:00:00 13 0 Calma 10 Norte 0 -- -- 85
2018-09-15 07:00:00 13.8 8 Norte 13 Norte 0 -- -- 86
2018-09-15 06:00:00 14.5 8 Norte 11 Norte 0 -- -- 81
2018-09-15 05:00:00 15.3 3 Nordeste 14 Sudoeste 0 -- -- 74
2018-09-15 04:00:00 16.7 3 Norte 14 Nordeste 0 -- -- 66
2018-09-15 03:00:00 17.7 10 Nordeste 21 Nordeste 0 -- -- 59
2018-09-15 02:00:00 18.6 13 Nordeste 14 Nordeste 0 -- -- 54
2018-09-15 01:00:00 19.6 6 Este 9 Sudeste 0 -- -- 50
2018-09-15 00:00:00 19.7 0 Calma 6 Este 0 -- -- 51
2018-09-14 23:00:00 20.6 3 Este 4 Este 0 -- -- 48
2018-09-14 22:00:00 21.6 3 Noroeste 11 Nordeste 0 -- -- 44
2018-09-14 21:00:00 24.2 6 Nordeste 9 Nordeste 0 -- -- 39
2018-09-14 20:00:00 28.1 6 Norte 12 Noroeste 0 -- -- 32
2018-09-14 19:00:00 29.3 10 Noroeste 19 Noroeste 0 -- -- 29
2018-09-14 18:00:00 30.3 13 Norte 22 Noroeste 0 -- -- 29
2018-09-14 17:00:00 30.2 14 Noroeste 22 Noroeste 0 -- -- 30
2018-09-14 16:00:00 29.3 8 Nordeste 18 Norte 0 -- -- 33
2018-09-14 15:00:00 28 6 Nordeste 17 Norte 0 -- -- 35
2018-09-14 14:00:00 25.9 8 Nordeste 15 Norte 0 -- -- 40
2018-09-14 13:00:00 23.7 10 Nordeste 18 Norte 0 -- -- 48
2018-09-14 12:00:00 21.3 10 Nordeste 14 Nordeste 0 -- -- 53
2018-09-14 11:00:00 18.6 8 Norte 13 Norte 0 -- -- 64
2018-09-14 10:00:00 16.1 8 Nordeste 12 Norte 0 -- -- 73
2018-09-14 09:00:00 14.1 4 Norte 8 Nordeste 0 -- -- 74
2018-09-14 08:00:00 12.7 0 Calma 4 Norte 0 -- -- 74
2018-09-14 07:00:00 13.5 0 Calma 6 Norte 0 -- -- 69
2018-09-14 06:00:00 14 2 Nordeste 4 Nordeste 0 -- -- 68
2018-09-14 05:00:00 14.7 0 Calma 4 Norte 0 -- -- 64
2018-09-14 04:00:00 16.1 0 Calma 16 Nordeste 0 -- -- 57
2018-09-14 03:00:00 16.6 9 Norte 12 Nordeste 0 -- -- 57
2018-09-14 02:00:00 17.6 4 Sudoeste 8 Este 0 -- -- 54
2018-09-14 01:00:00 17.7 4 Nordeste 5 Este 0 -- -- 56
2018-09-14 00:00:00 18.8 0 Calma 5 Sudoeste 0 -- -- 53
2018-09-13 23:00:00 20.6 3 Sur 7 Nordeste 0 -- -- 45
2018-09-13 22:00:00 21.5 3 Nordeste 9 Nordeste 0 -- -- 47
2018-09-13 21:00:00 24.4 9 Nordeste 13 Norte 0 -- -- 42
2018-09-13 20:00:00 28 9 Nordeste 16 Norte 0 -- -- 35
2018-09-13 19:00:00 29.3 11 Norte 23 Norte 0 -- -- 33
2018-09-13 18:00:00 30 12 Norte 23 Norte 0 -- -- 33
2018-09-13 17:00:00 30.5 10 Noroeste 27 Noroeste 0 -- -- 33
2018-09-13 16:00:00 30.2 11 Noroeste 30 Noroeste 0 -- -- 33
2018-09-13 15:00:00 29.3 12 Norte 26 Noroeste 0 -- -- 35
2018-09-13 14:00:00 27.2 10 Norte 18 Noroeste 0 -- -- 42
2018-09-13 13:00:00 25.6 11 Norte 17 Norte 0 -- -- 48
2018-09-13 12:00:00 23.7 6 Norte 10 Norte 0 -- -- 54
2018-09-13 11:00:00 21.2 4 Norte 9 Norte 0 -- -- 62
2018-09-13 10:00:00 18.9 3 Norte 8 Norte 0 -- -- 70
2018-09-13 09:00:00 15 0 Calma 3 Sudoeste 0 -- -- 79
2018-09-13 08:00:00 13.2 2 Sudoeste 4 Sudoeste 0 -- -- 79
2018-09-13 07:00:00 14.4 2 Sudoeste 5 Sudoeste 0 -- -- 75
2018-09-13 06:00:00 15.5 0 Calma 8 Noroeste 0 -- -- 73
2018-09-13 05:00:00 16.1 6 Norte 10 Noroeste 0 -- -- 67
2018-09-13 04:00:00 18.2 10 Noroeste 18 Noroeste 0 -- -- 61
2018-09-13 03:00:00 19.4 8 Norte 17 Noroeste 0 -- -- 56
2018-09-13 02:00:00 20.3 13 Noroeste 19 Noroeste 0 -- -- 53
2018-09-13 01:00:00 20.2 8 Noroeste 12 Oeste 0 -- -- 51
2018-09-13 00:00:00 20.1 2 Sur 5 Noroeste 0 -- -- 46
2018-09-12 23:00:00 20.7 3 Sudoeste 8 Oeste 0 -- -- 44
2018-09-12 22:00:00 21.7 2 Sudoeste 8 Noroeste 0 -- -- 43
2018-09-12 21:00:00 25.4 5 Noroeste 10 Noroeste 0 -- -- 35
2018-09-12 20:00:00 28.3 9 Noroeste 21 Noroeste 0 -- -- 31
2018-09-12 19:00:00 29.7 12 Noroeste 24 Noroeste 0 -- -- 29
2018-09-12 18:00:00 29.9 12 Noroeste 21 Noroeste 0 -- -- 29
2018-09-12 17:00:00 29.2 7 Noroeste 20 Noroeste 0 -- -- 31
2018-09-12 16:00:00 29.4 10 Oeste 20 Noroeste 0 -- -- 31
2018-09-12 15:00:00 27.4 8 Oeste 22 Noroeste 0 -- -- 35
2018-09-12 14:00:00 28 11 Noroeste 23 Noroeste 0 -- -- 37
2018-09-12 13:00:00 26.5 8 Norte 19 Noroeste 0 -- -- 41
2018-09-12 12:00:00 24.4 5 Noroeste 11 Noroeste 0 -- -- 47
2018-09-12 11:00:00 21.4 3 Norte 10 Oeste 0 -- -- 55
2018-09-12 10:00:00 18.2 5 Sudoeste 10 Sudoeste 0 -- -- 65
2018-09-12 09:00:00 14.6 6 Sudoeste 10 Sudoeste 0 -- -- 79
2018-09-12 08:00:00 12.9 4 Sudoeste 8 Sudoeste 0 -- -- 80
2018-09-12 07:00:00 13.6 4 Sudoeste 8 Sudoeste 0 -- -- 77
2018-09-12 06:00:00 14.5 6 Noroeste 13 Noroeste 0 -- -- 75
2018-09-12 05:00:00 14.3 3 Noroeste 5 Sudoeste 0 -- -- 72
2018-09-12 04:00:00 16 3 Sudoeste 14 Este 0 -- -- 65
2018-09-12 03:00:00 17.2 12 Este 19 Este 0 -- -- 61
2018-09-12 02:00:00 19.1 4 Sur 10 Nordeste 0 -- -- 55
2018-09-12 01:00:00 18.8 2 Sudeste 12 Sudeste 0 -- -- 56
2018-09-12 00:00:00 20.1 5 Sudeste 17 Este 0 -- -- 53
2018-09-11 23:00:00 22.3 15 Este 35 Este 0 -- -- 47
2018-09-11 22:00:00 20.7 0 Calma 6 Nordeste 0 -- -- 45
2018-09-11 21:00:00 24 5 Nordeste 10 Nordeste 0 -- -- 38
2018-09-11 20:00:00 27.3 5 Nordeste 16 Este 0 -- -- 31
2018-09-11 19:00:00 28.2 11 Norte 22 Nordeste 0 -- -- 31
2018-09-11 18:00:00 28 9 Nordeste 23 Este 0 -- -- 30
2018-09-11 17:00:00 28.2 14 Nordeste 29 Este 0 -- -- 29
2018-09-11 16:00:00 27.7 15 Este 27 Este 0 -- -- 30
2018-09-11 15:00:00 27.2 14 Este 30 Este 0 -- -- 35
2018-09-11 14:00:00 26.1 11 Este 25 Este 0 -- -- 40
2018-09-11 13:00:00 25.2 9 Este 25 Nordeste 0 -- -- 44
2018-09-11 12:00:00 23.5 10 Este 22 Este 0 -- -- 51
2018-09-11 11:00:00 20.5 6 Nordeste 10 Nordeste 0 -- -- 61
2018-09-11 10:00:00 17.5 2 Norte 5 Norte 0 -- -- 71
2018-09-11 09:00:00 14.8 4 Norte 7 Norte 0 -- -- 80
2018-09-11 08:00:00 12.7 0 Calma 3 Noroeste 0 -- -- 81
2018-09-11 07:00:00 13.2 2 Norte 5 Norte 0 -- -- 79
2018-09-11 06:00:00 13.4 0 Calma 2 Sur 0 -- -- 78
2018-09-11 05:00:00 13.6 0 Calma 3 Sudoeste 0 -- -- 78
2018-09-11 04:00:00 15 0 Calma 3 Oeste 0 -- -- 71
2018-09-11 03:00:00 16.2 3 Norte 9 Norte 0 -- -- 66
2018-09-11 02:00:00 17 9 Nordeste 13 Nordeste 0 -- -- 63
2018-09-11 01:00:00 17.5 3 Este 10 Nordeste 0 -- -- 59
2018-09-11 00:00:00 19.2 9 Nordeste 16 Nordeste 0 -- -- 54
2018-09-10 23:00:00 19.1 0 Calma 5 Norte 0 -- -- 53
2018-09-10 22:00:00 19.8 3 Norte 9 Nordeste 0 -- -- 49
2018-09-10 21:00:00 22.1 8 Nordeste 13 Nordeste 0 -- -- 44
2018-09-10 20:00:00 26.1 7 Este 18 Nordeste 0 -- -- 35
2018-09-10 19:00:00 26.6 8 Este 19 Este 0 -- -- 33
2018-09-10 18:00:00 26.7 8 Nordeste 21 Este 0 -- -- 35
2018-09-10 17:00:00 26.4 9 Este 22 Nordeste 0 -- -- 35
2018-09-10 16:00:00 25.4 9 Este 24 Nordeste 0 -- -- 41
2018-09-10 15:00:00 24.4 7 Norte 24 Nordeste 0 -- -- 47
2018-09-10 14:00:00 23.1 12 Nordeste 18 Este 0 -- -- 52
2018-09-10 13:00:00 21.7 9 Nordeste 18 Norte 0 -- -- 58
2018-09-10 12:00:00 19.6 8 Nordeste 15 Nordeste 0 -- -- 69
2018-09-10 11:00:00 17.6 10 Nordeste 18 Norte 0 -- -- 78
2018-09-10 10:00:00 15.8 10 Norte 13 Norte 0 -- -- 86
2018-09-10 09:00:00 13.7 3 Norte 8 Norte 0 -- -- 94
2018-09-10 08:00:00 12.4 4 Norte 9 Norte 0 -- -- 92
2018-09-10 07:00:00 12.6 4 Norte 10 Norte 0 -- -- 91
2018-09-10 06:00:00 12.8 4 Norte 10 Nordeste 0 -- -- 88
2018-09-10 05:00:00 13.4 2 Nordeste 9 Norte 0 -- -- 82
2018-09-10 04:00:00 14.2 4 Norte 15 Norte 0 -- -- 80
2018-09-10 03:00:00 15.1 10 Nordeste 13 Nordeste 0 -- -- 78
2018-09-10 02:00:00 15.5 9 Nordeste 13 Nordeste 0 -- -- 74
2018-09-10 01:00:00 16.3 8 Nordeste 13 Nordeste 0 -- -- 70
2018-09-10 00:00:00 17.1 0 Calma 9 Nordeste 0 -- -- 66
2018-09-09 23:00:00 18.2 4 Norte 16 Nordeste 0 -- -- 62
2018-09-09 22:00:00 19.9 14 Nordeste 21 Nordeste 0 -- -- 57
2018-09-09 21:00:00 21.8 16 Nordeste 22 Nordeste 0 -- -- 47
2018-09-09 20:00:00 24.7 11 Nordeste 15 Nordeste 0 -- -- 34
2018-09-09 19:00:00 24.9 8 Nordeste 16 Nordeste 0 -- -- 33
2018-09-09 18:00:00 25.5 13 Nordeste 23 Norte 0 -- -- 33
2018-09-09 17:00:00 26.4 9 Norte 18 Noroeste 0 -- -- 31
2018-09-09 16:00:00 26.1 6 Noroeste 20 Noroeste 0 -- -- 33
2018-09-09 15:00:00 25.2 6 Norte 14 Noroeste 0 -- -- 36
2018-09-09 14:00:00 23.5 5 Norte 14 Norte 0 -- -- 40
2018-09-09 13:00:00 21.8 6 Norte 14 Norte 0 -- -- 48
2018-09-09 12:00:00 20.1 8 Norte 13 Norte 0 -- -- 53
2018-09-09 11:00:00 17.8 6 Norte 19 Nordeste 0 -- -- 65
2018-09-09 10:00:00 16.4 12 Nordeste 14 Nordeste 0 -- -- 71
2018-09-09 09:00:00 13.3 4 Noroeste 7 Sur 0 -- -- 80
2018-09-09 08:00:00 12.7 2 Sudoeste 12 Sur 0 -- -- 79
2018-09-09 07:00:00 13 4 Sur 16 Sudeste 0 -- -- 79
2018-09-09 06:00:00 14.4 13 Sudeste 16 Sudeste 0 -- -- 70
2018-09-09 05:00:00 14.3 10 Este 18 Sudoeste 0 -- -- 74
2018-09-09 04:00:00 14 4 Este 9 Norte 0 -- -- 80
2018-09-09 03:00:00 14.2 8 Norte 21 Nordeste 0 -- -- 76
2018-09-09 02:00:00 15.4 6 Norte 20 Sudeste 0 -- -- 67
2018-09-09 01:00:00 16.5 14 Sudeste 20 Sudeste 0 -- -- 63
2018-09-09 00:00:00 17.1 11 Oeste 21 Noroeste 0.4 -- -- 70
2018-09-08 23:00:00 18.5 15 Noroeste 22 Noroeste 0 -- -- 60
2018-09-08 22:00:00 19.5 10 Oeste 27 Sur 0 -- -- 64
2018-09-08 21:00:00 20.2 11 Sudeste 33 Sudeste 0 -- -- 61
2018-09-08 20:00:00 21.2 23 Sudeste 39 Sudeste 0 -- -- 59
2018-09-08 19:00:00 23.2 30 Sudeste 41 Sudeste 0 -- -- 48
2018-09-08 18:00:00 24 13 Sudeste 28 Sudeste 0 -- -- 42
2018-09-08 17:00:00 24.7 18 Sudeste 35 Sudeste 0 -- -- 36
2018-09-08 16:00:00 23.9 11 Sur 22 Sudeste 0 -- -- 45
2018-09-08 15:00:00 23.5 14 Sur 25 Sur 0 -- -- 45
2018-09-08 14:00:00 21.3 16 Sudoeste 27 Sudoeste 0 -- -- 58
2018-09-08 13:00:00 20.1 4 Sudeste 10 Nordeste 0 -- -- 70
2018-09-08 12:00:00 18.7 5 Norte 14 Norte 0 -- -- 77
2018-09-08 11:00:00 18.9 8 Norte 13 Norte 0 -- -- 80
2018-09-08 10:00:00 17.4 5 Nordeste 12 Norte 0 -- -- 83
2018-09-08 09:00:00 14.4 3 Noroeste 5 Norte 0 -- -- 91
2018-09-08 08:00:00 13.1 3 Nordeste 8 Noroeste 0 -- -- 91
2018-09-08 07:00:00 13.1 0 Calma 3 Nordeste 0 -- -- 89
2018-09-08 06:00:00 14.1 0 Calma 14 Este 0 -- -- 88
2018-09-08 05:00:00 14.5 7 Nordeste 20 Nordeste 0 -- -- 88
2018-09-08 04:00:00 15.3 16 Nordeste 27 Este 0 -- -- 86
2018-09-08 03:00:00 15.7 8 Este 18 Norte 2.6 -- -- 85
2018-09-08 02:00:00 17.2 15 Sur 41 Sur 0 -- -- 71
2018-09-08 01:00:00 16.6 9 Nordeste 17 Nordeste 0 -- -- 69
2018-09-08 00:00:00 17.9 14 Nordeste 26 Nordeste 0 -- -- 62
2018-09-07 23:00:00 18.6 17 Nordeste 30 Norte 0 -- -- 60
2018-09-07 22:00:00 20.2 30 Norte 45 Norte 7.6 -- -- 55
2018-09-07 21:00:00 22.2 11 Nordeste 18 Norte 0 -- -- 40
2018-09-07 20:00:00 24 12 Nordeste 24 Nordeste 0 -- -- 37
2018-09-07 19:00:00 25.5 13 Nordeste 29 Nordeste 0 -- -- 35
2018-09-07 18:00:00 25.8 14 Nordeste 24 Norte 0 -- -- 34
2018-09-07 17:00:00 25.7 9 Nordeste 22 Nordeste 0 -- -- 35
2018-09-07 16:00:00 25.2 15 Nordeste 25 Nordeste 0 -- -- 38
2018-09-07 15:00:00 24.6 13 Nordeste 26 Nordeste 0 -- -- 41
2018-09-07 14:00:00 22.9 15 Nordeste 25 Nordeste 0 -- -- 46
2018-09-07 13:00:00 21.4 15 Nordeste 28 Este 0 -- -- 52
2018-09-07 12:00:00 19.5 14 Nordeste 24 Nordeste 0 -- -- 58
2018-09-07 11:00:00 17.3 17 Nordeste 24 Nordeste 0 -- -- 67
2018-09-07 10:00:00 15.3 14 Nordeste 23 Nordeste 0 -- -- 75
2018-09-07 09:00:00 13.6 14 Nordeste 19 Nordeste 0 -- -- 83
2018-09-07 08:00:00 12.4 14 Nordeste 18 Nordeste 0 -- -- 89
2018-09-07 07:00:00 12.4 10 Nordeste 15 Nordeste 0 -- -- 88
2018-09-07 06:00:00 13.2 12 Nordeste 15 Nordeste 0 -- -- 85
2018-09-07 05:00:00 13.4 9 Nordeste 15 Nordeste 0 -- -- 84
2018-09-07 04:00:00 13.5 12 Nordeste 20 Nordeste 0 -- -- 83
2018-09-07 03:00:00 14.2 12 Nordeste 20 Nordeste 0 -- -- 81
2018-09-07 02:00:00 15.2 14 Nordeste 26 Nordeste 0 -- -- 78
2018-09-07 01:00:00 15.5 16 Nordeste 28 Nordeste 0 -- -- 75
2018-09-07 00:00:00 16.8 19 Nordeste 32 Este 0 -- -- 68
2018-09-06 23:00:00 18.3 17 Nordeste 26 Nordeste 0 -- -- 61
2018-09-06 22:00:00 19.5 18 Nordeste 23 Nordeste 0 -- -- 52
2018-09-06 21:00:00 21 17 Nordeste 24 Nordeste 0 -- -- 47
2018-09-06 20:00:00 23.2 15 Norte 23 Nordeste 0 -- -- 39
2018-09-06 19:00:00 24.1 14 Norte 26 Norte 0 -- -- 38
2018-09-06 18:00:00 24.3 13 Norte 28 Nordeste 0 -- -- 38
2018-09-06 17:00:00 24 9 Norte 26 Norte 0 -- -- 41
2018-09-06 16:00:00 23.3 14 Nordeste 26 Norte 0 -- -- 44
2018-09-06 15:00:00 22.8 13 Norte 33 Norte 0 -- -- 47
2018-09-06 14:00:00 21.3 17 Nordeste 26 Nordeste 0 -- -- 53
2018-09-06 13:00:00 20.2 17 Norte 25 Nordeste 0 -- -- 61
2018-09-06 12:00:00 18.1 14 Nordeste 25 Norte 0 -- -- 73
2018-09-06 11:00:00 16.5 15 Nordeste 23 Nordeste 0 -- -- 81
2018-09-06 10:00:00 14.8 11 Norte 15 Norte 0 -- -- 89
2018-09-06 09:00:00 14.1 10 Norte 13 Norte 0 -- -- 92
2018-09-06 08:00:00 13.7 8 Norte 13 Norte 0 -- -- 93
2018-09-06 07:00:00 13.4 9 Norte 14 Norte 0 -- -- 94
2018-09-06 06:00:00 13.7 9 Norte 16 Norte 0 -- -- 94
2018-09-06 05:00:00 14 12 Nordeste 15 Norte 0 -- -- 93
2018-09-06 04:00:00 14.5 11 Norte 14 Norte 0 -- -- 91
2018-09-06 03:00:00 15 9 Norte 13 Norte 0 -- -- 87
2018-09-06 02:00:00 15.4 5 Norte 8 Norte 0 -- -- 84
2018-09-06 01:00:00 16.2 0 Calma 5 Noroeste 0 -- -- 80
2018-09-06 00:00:00 16.8 3 Este 7 Sudeste 0 -- -- 78
2018-09-05 23:00:00 16.6 5 Noroeste 11 Norte 0 -- -- 77
2018-09-05 22:00:00 17.6 4 Norte 15 Noroeste 0 -- -- 73
2018-09-05 21:00:00 18.1 5 Noroeste 13 Noroeste 0 -- -- 66
2018-09-05 20:00:00 19.2 12 Noroeste 22 Noroeste 0 -- -- 63
2018-09-05 19:00:00 21.6 14 Noroeste 23 Noroeste 0 -- -- 54
2018-09-05 18:00:00 20.1 11 Noroeste 21 Oeste 0 -- -- 63
2018-09-05 17:00:00 20.5 10 Oeste 18 Oeste 0 -- -- 59
2018-09-05 16:00:00 21.4 3 Norte 28 Oeste 0.4 -- -- 55
2018-09-05 15:00:00 21.1 10 Noroeste 19 Noroeste 0 -- -- 59
2018-09-05 14:00:00 21.8 9 Noroeste 17 Noroeste 0 -- -- 56
2018-09-05 13:00:00 20.2 9 Noroeste 20 Norte 0 -- -- 68
2018-09-05 12:00:00 18.7 12 Noroeste 26 Norte 0 -- -- 77
2018-09-05 11:00:00 17.7 13 Noroeste 19 Noroeste 0 -- -- 84
2018-09-05 10:00:00 16.1 12 Oeste 19 Oeste 0 -- -- 92
2018-09-05 09:00:00 14.8 14 Oeste 20 Sudoeste 0 -- -- 93
2018-09-05 08:00:00 14.5 5 Sudoeste 14 Oeste 0 -- -- 91
2018-09-05 07:00:00 14.7 8 Sudoeste 14 Sudoeste 0 -- -- 88
2018-09-05 06:00:00 15.6 4 Noroeste 18 Oeste 0 -- -- 86
2018-09-05 05:00:00 15.5 14 Sudoeste 20 Sudoeste 0 -- -- 85
2018-09-05 04:00:00 15.5 9 Sudoeste 11 Sudoeste 0 -- -- 83
2018-09-05 03:00:00 16.2 7 Sudoeste 19 Sudoeste 0 -- -- 80
2018-09-05 02:00:00 16.8 10 Sudoeste 14 Sudoeste 0 -- -- 78
2018-09-05 01:00:00 18.3 2 Sur 12 Nordeste 0 -- -- 74
2018-09-05 00:00:00 18.2 4 Sudoeste 8 Sudoeste 0 -- -- 71
2018-09-04 23:00:00 18.4 3 Sur 13 Sudoeste 0 -- -- 71
2018-09-04 22:00:00 19.2 6 Oeste 27 Oeste 0 -- -- 67
2018-09-04 21:00:00 21.7 6 Este 41 Sur 4.2 -- -- 65
2018-09-04 20:00:00 25.1 9 Nordeste 15 Nordeste 0 -- -- 42
2018-09-04 19:00:00 26.3 11 Norte 23 Norte 0 -- -- 41
2018-09-04 18:00:00 27 13 Noroeste 22 Noroeste 0 -- -- 40
2018-09-04 17:00:00 26.8 12 Noroeste 27 Noroeste 0 -- -- 40
2018-09-04 16:00:00 26.3 15 Noroeste 28 Noroeste 0 -- -- 41
2018-09-04 15:00:00 25.7 14 Oeste 27 Oeste 0 -- -- 42
2018-09-04 14:00:00 24.3 12 Noroeste 22 Noroeste 0 -- -- 45
2018-09-04 13:00:00 22.6 6 Noroeste 13 Noroeste 0 -- -- 49
2018-09-04 12:00:00 19.9 4 Este 10 Noroeste 0 -- -- 53
2018-09-04 11:00:00 17.6 3 Noroeste 9 Norte 0 -- -- 61
2018-09-04 10:00:00 15.7 3 Norte 6 Norte 0 -- -- 65
2018-09-04 09:00:00 13.1 2 Noroeste 4 Sur 0 -- -- 76
2018-09-04 08:00:00 11.7 0 Calma 3 Norte 0 -- -- 79
2018-09-04 07:00:00 12 3 Norte 9 Norte 0 -- -- 77
2018-09-04 06:00:00 12.2 4 Norte 9 Norte 0 -- -- 78
2018-09-04 05:00:00 13.1 9 Norte 14 Nordeste 0 -- -- 73
2018-09-04 04:00:00 14 11 Nordeste 14 Nordeste 0 -- -- 69
2018-09-04 03:00:00 15.3 13 Nordeste 25 Nordeste 0 -- -- 65
2018-09-04 02:00:00 16.3 13 Nordeste 25 Nordeste 0 -- -- 70
2018-09-04 01:00:00 17.8 13 Nordeste 25 Nordeste 0 -- -- 71
2018-09-04 00:00:00 19.4 5 Norte 10 Oeste 0 -- -- 61
2018-09-03 23:00:00 21.2 8 Oeste 18 Oeste 0 -- -- 54
2018-09-03 22:00:00 22.4 9 Oeste 21 Oeste 0 -- -- 59
2018-09-03 21:00:00 24 18 Oeste 30 Sudoeste 0 -- -- 50
2018-09-03 20:00:00 26.3 23 Sudoeste 33 Sudoeste 0 -- -- 41
2018-09-03 19:00:00 29.3 9 Sudoeste 15 Sudoeste 0 -- -- 29
2018-09-03 18:00:00 29.7 4 Sur 17 Sur 0 -- -- 29
2018-09-03 17:00:00 29.1 9 Sudoeste 18 Sur 0 -- -- 30
2018-09-03 16:00:00 28.4 4 Sur 15 Sudoeste 0 -- -- 39
2018-09-03 15:00:00 27.8 9 Sur 18 Sudeste 0 -- -- 41
2018-09-03 14:00:00 26.7 9 Este 24 Nordeste 0 -- -- 43
2018-09-03 13:00:00 25 16 Nordeste 22 Este 0 -- -- 48
2018-09-03 12:00:00 21.9 7 Nordeste 16 Norte 0 -- -- 60
2018-09-03 11:00:00 20.1 10 Norte 29 Noroeste 0 -- -- 67
2018-09-03 10:00:00 19.2 22 Norte 33 Norte 0 -- -- 69
2018-09-03 09:00:00 18.9 10 Noroeste 19 Noroeste 0 -- -- 70
2018-09-03 08:00:00 19.3 3 Sudeste 17 Sudeste 0 -- -- 64
2018-09-03 07:00:00 18.7 9 Sudeste 20 Sudeste 0 -- -- 69
2018-09-03 06:00:00 19.3 13 Sudeste 18 Sudeste 0 -- -- 69
2018-09-03 05:00:00 19.5 6 Este 10 Sudeste 0 -- -- 70
2018-09-03 04:00:00 19.6 10 Este 24 Sudeste 5.8 -- -- 68
2018-09-03 03:00:00 20.7 3 Norte 22 Norte 0 -- -- 66
2018-09-03 02:00:00 21.2 11 Nordeste 33 Norte 2 -- -- 61
2018-09-03 01:00:00 22.6 13 Noroeste 78 Oeste 15.2 -- -- 53
2018-09-03 00:00:00 23.3 4 Sudoeste 9 Noroeste 0 -- -- 34
2018-09-02 23:00:00 23.5 5 Nordeste 11 Nordeste 0 -- -- 34
2018-09-02 22:00:00 26.1 4 Sudoeste 15 Oeste 0 -- -- 30
2018-09-02 21:00:00 28.5 8 Sudoeste 15 Sur 0 -- -- 27
2018-09-02 20:00:00 31.7 9 Sur 42 Oeste 0 -- -- 19
2018-09-02 19:00:00 33.3 10 Sudoeste 18 Sudoeste 0 -- -- 20
2018-09-02 18:00:00 33.9 10 Oeste 33 Oeste 0 -- -- 19
2018-09-02 17:00:00 33.2 10 Sudoeste 26 Sudoeste 0 -- -- 22
2018-09-02 16:00:00 33.2 7 Oeste 21 Sudoeste 0 -- -- 24
2018-09-02 15:00:00 32.2 10 Sur 27 Oeste 0 -- -- 26
2018-09-02 14:00:00 31.3 4 Sudoeste 15 Sudeste 0 -- -- 29
2018-09-02 13:00:00 28.4 6 Sudeste 15 Este 0 -- -- 34
2018-09-02 12:00:00 24.6 2 Este 8 Nordeste 0 -- -- 45
2018-09-02 11:00:00 21.3 0 Calma 14 Nordeste 0 -- -- 54
2018-09-02 10:00:00 19.8 8 Norte 13 Norte 0 -- -- 59
2018-09-02 09:00:00 16.8 9 Norte 12 Norte 0 -- -- 67
2018-09-02 08:00:00 15.9 7 Norte 12 Norte 0 -- -- 68
2018-09-02 07:00:00 15.7 5 Norte 9 Nordeste 0 -- -- 65
2018-09-02 06:00:00 16.4 3 Sudeste 12 Nordeste 0 -- -- 63
2018-09-02 05:00:00 16.3 8 Nordeste 10 Nordeste 0 -- -- 63
2018-09-02 04:00:00 16.1 0 Calma 4 Sudoeste 0 -- -- 57
2018-09-02 03:00:00 16.9 0 Calma 5 Este 0 -- -- 56
2018-09-02 02:00:00 19.1 2 Este 13 Este 0 -- -- 49
2018-09-02 01:00:00 21.6 10 Este 14 Nordeste 0 -- -- 43
2018-09-02 00:00:00 21.8 9 Nordeste 15 Nordeste 0 -- -- 41
2018-09-01 23:00:00 23.2 13 Nordeste 16 Nordeste 0 -- -- 39
2018-09-01 22:00:00 23.5 11 Nordeste 13 Nordeste 0 -- -- 37
2018-09-01 21:00:00 25.9 10 Nordeste 14 Nordeste 0 -- -- 33
2018-09-01 20:00:00 29.8 11 Norte 17 Norte 0 -- -- 27
2018-09-01 19:00:00 30.6 12 Nordeste 21 Norte 0 -- -- 27
2018-09-01 18:00:00 31.3 7 Nordeste 21 Norte 0 -- -- 24
2018-09-01 17:00:00 31 10 Norte 25 Nordeste 0 -- -- 27
2018-09-01 16:00:00 30.5 13 Norte 24 Nordeste 0 -- -- 29
2018-09-01 15:00:00 29.4 13 Nordeste 24 Nordeste 0 -- -- 31
2018-09-01 14:00:00 27.9 15 Nordeste 24 Nordeste 0 -- -- 37
2018-09-01 13:00:00 25.6 14 Nordeste 21 Nordeste 0 -- -- 44
2018-09-01 12:00:00 22.8 12 Nordeste 18 Nordeste 0 -- -- 52
2018-09-01 11:00:00 20.3 11 Nordeste 17 Norte 0 -- -- 60
2018-09-01 10:00:00 17.9 11 Norte 14 Norte 0 -- -- 69
2018-09-01 09:00:00 15.5 5 Norte 9 Norte 0 -- -- 77
2018-09-01 08:00:00 13.7 6 Norte 12 Nordeste 0 -- -- 82
2018-09-01 07:00:00 13.8 6 Norte 10 Norte 0 -- -- 81
2018-09-01 06:00:00 14.4 8 Norte 11 Norte 0 -- -- 79
2018-09-01 05:00:00 13.7 8 Nordeste 12 Este 0 -- -- 78
2018-09-01 04:00:00 14.8 8 Este 13 Este 0 -- -- 73
2018-09-01 03:00:00 16.5 4 Este 13 Este 0 -- -- 67
2018-09-01 02:00:00 18.6 5 Este 19 Este 0 -- -- 59
2018-09-01 01:00:00 20.5 14 Este 23 Este 0 -- -- 53
2018-09-01 00:00:00 21.4 14 Este 19 Este 0 -- -- 46
2018-08-31 23:00:00 22 11 Nordeste 17 Nordeste 0 -- -- 40
2018-08-31 22:00:00 22.3 10 Nordeste 14 Nordeste 0 -- -- 38
2018-08-31 21:00:00 25 10 Nordeste 18 Norte 0 -- -- 34
2018-08-31 20:00:00 28.5 10 Nordeste 19 Nordeste 0 -- -- 28
2018-08-31 19:00:00 29.4 8 Nordeste 21 Nordeste 0 -- -- 27
2018-08-31 18:00:00 29.5 7 Este 19 Norte 0 -- -- 28
2018-08-31 17:00:00 29.4 11 Nordeste 25 Nordeste 0 -- -- 27
2018-08-31 16:00:00 29 10 Norte 19 Norte 0 -- -- 30
2018-08-31 15:00:00 28 10 Norte 19 Noroeste 0 -- -- 31
2018-08-31 14:00:00 26 10 Nordeste 25 Norte 0 -- -- 36
2018-08-31 13:00:00 24.1 11 Nordeste 22 Nordeste 0 -- -- 39
2018-08-31 12:00:00 21.7 9 Nordeste 17 Nordeste 0 -- -- 53
2018-08-31 11:00:00 19.3 9 Nordeste 18 Nordeste 0 -- -- 61
2018-08-31 10:00:00 17 10 Nordeste 16 Norte 0 -- -- 69
2018-08-31 09:00:00 14.2 2 Noroeste 8 Nordeste 0 -- -- 83
2018-08-31 08:00:00 13 5 Norte 9 Norte 0 -- -- 86
2018-08-31 07:00:00 13.2 4 Norte 9 Norte 0 -- -- 84
2018-08-31 06:00:00 14.1 5 Norte 12 Norte 0 -- -- 81
2018-08-31 05:00:00 15 11 Norte 14 Norte 0 -- -- 80
2018-08-31 04:00:00 15.7 10 Nordeste 14 Nordeste 0 -- -- 77
2018-08-31 03:00:00 17.1 10 Nordeste 18 Nordeste 0 -- -- 69
2018-08-31 02:00:00 17.4 9 Nordeste 15 Nordeste 0 -- -- 63
2018-08-31 01:00:00 19.7 9 Este 17 Nordeste 0 -- -- 53
2018-08-31 00:00:00 19.8 0 Calma 9 Nordeste 0 -- -- 44
2018-08-30 23:00:00 20.9 4 Norte 9 Nordeste 0 -- -- 40
2018-08-30 22:00:00 21.9 7 Nordeste 11 Nordeste 0 -- -- 40
2018-08-30 21:00:00 24.4 8 Nordeste 18 Norte 0 -- -- 36
2018-08-30 20:00:00 28.5 13 Norte 19 Norte 0 -- -- 30
2018-08-30 19:00:00 29.7 8 Noroeste 16 Noroeste 0 -- -- 30
2018-08-30 18:00:00 30 7 Norte 14 Noroeste 0 -- -- 29
2018-08-30 17:00:00 30.2 11 Noroeste 18 Noroeste 0 -- -- 30
2018-08-30 16:00:00 28.9 8 Noroeste 15 Nordeste 0 -- -- 33
2018-08-30 15:00:00 27.1 6 Nordeste 19 Nordeste 0 -- -- 40
2018-08-30 14:00:00 25.3 8 Nordeste 18 Norte 0 -- -- 47
2018-08-30 13:00:00 23.3 9 Norte 16 Norte 0 -- -- 54
2018-08-30 12:00:00 20.6 10 Nordeste 14 Nordeste 0 -- -- 61
2018-08-30 11:00:00 18 8 Nordeste 16 Norte 0 -- -- 69
2018-08-30 10:00:00 15.8 12 Norte 17 Norte 0 -- -- 75
2018-08-30 09:00:00 13.9 9 Norte 12 Norte 0 -- -- 84
2018-08-30 08:00:00 12.4 6 Norte 10 Norte 0 -- -- 89
2018-08-30 07:00:00 12.9 7 Norte 9 Norte 0 -- -- 87
2018-08-30 06:00:00 13.7 6 Norte 10 Norte 0 -- -- 87
2018-08-30 05:00:00 14.5 6 Norte 10 Norte 0 -- -- 83
2018-08-30 04:00:00 15.5 7 Norte 15 Norte 0 -- -- 81
2018-08-30 03:00:00 16.5 12 Norte 17 Norte 0 -- -- 78
2018-08-30 02:00:00 17.2 10 Nordeste 18 Nordeste 0 -- -- 73
2018-08-30 01:00:00 19.1 13 Nordeste 22 Nordeste 0 -- -- 67
2018-08-30 00:00:00 20.8 14 Nordeste 22 Este 0 -- -- 58
2018-08-29 23:00:00 21 9 Nordeste 14 Norte 0 -- -- 46
2018-08-29 22:00:00 23.3 0 Calma 9 Norte 0 -- -- 41
2018-08-29 21:00:00 25.5 6 Norte 11 Norte 0 -- -- 37
2018-08-29 20:00:00 27.5 8 Nordeste 16 Nordeste 0 -- -- 33
2018-08-29 19:00:00 28.1 9 Nordeste 20 Nordeste 0 -- -- 32
2018-08-29 18:00:00 28.4 8 Nordeste 20 Norte 0 -- -- 32
2018-08-29 17:00:00 28.4 10 Nordeste 21 Norte 0 -- -- 31
2018-08-29 16:00:00 27.3 9 Norte 22 Nordeste 0 -- -- 39
2018-08-29 15:00:00 26.8 9 Nordeste 17 Norte 0 -- -- 41
2018-08-29 14:00:00 25.2 7 Nordeste 21 Nordeste 0 -- -- 45
2018-08-29 13:00:00 23.9 12 Norte 21 Nordeste 0 -- -- 49
2018-08-29 12:00:00 22.1 12 Norte 23 Norte 0 -- -- 54
2018-08-29 11:00:00 20.2 15 Norte 23 Norte 0 -- -- 61
2018-08-29 10:00:00 18.2 12 Norte 23 Noroeste 0 -- -- 70
2018-08-29 09:00:00 16.1 15 Noroeste 23 Noroeste 0 -- -- 83
2018-08-29 08:00:00 14.7 9 Noroeste 18 Noroeste 0 -- -- 90
2018-08-29 07:00:00 14.4 6 Sudoeste 12 Oeste 0 -- -- 86
2018-08-29 06:00:00 15 9 Sudoeste 14 Oeste 0 -- -- 84
2018-08-29 05:00:00 16.2 9 Oeste 12 Sudoeste 0 -- -- 80
2018-08-29 04:00:00 17 5 Sudoeste 9 Oeste 0 -- -- 75
2018-08-29 03:00:00 17.8 4 Oeste 10 Sudoeste 0 -- -- 71
2018-08-29 02:00:00 18.9 4 Sudoeste 9 Oeste 0 -- -- 63
2018-08-29 01:00:00 20.6 6 Oeste 18 Oeste 0 -- -- 57
2018-08-29 00:00:00 21.4 13 Noroeste 22 Noroeste 0 -- -- 52
2018-08-28 23:00:00 22.3 15 Noroeste 22 Noroeste 0 -- -- 48
2018-08-28 22:00:00 23.3 10 Noroeste 26 Oeste 0 -- -- 46
2018-08-28 21:00:00 26.6 17 Oeste 32 Oeste 0 -- -- 36
2018-08-28 20:00:00 27.3 20 Sudoeste 35 Sudoeste 0 -- -- 34
2018-08-28 19:00:00 28.7 25 Sudoeste 38 Sudoeste 0 -- -- 31
2018-08-28 18:00:00 29.5 25 Sudoeste 39 Sudoeste 0 -- -- 31
2018-08-28 17:00:00 29.2 24 Sudoeste 42 Sudoeste 0 -- -- 31
2018-08-28 16:00:00 30 22 Sudoeste 41 Sudoeste 0 -- -- 33
2018-08-28 15:00:00 29.3 22 Sudoeste 44 Sudoeste 0 -- -- 35
2018-08-28 14:00:00 28.6 28 Sudoeste 44 Sudoeste 0 -- -- 37
2018-08-28 13:00:00 27.1 28 Sudoeste 43 Sudoeste 0 -- -- 42
2018-08-28 12:00:00 26.3 28 Sudoeste 43 Oeste 0 -- -- 43
2018-08-28 11:00:00 25 27 Sudoeste 44 Sudoeste 0 -- -- 45
2018-08-28 10:00:00 23.3 23 Sudoeste 33 Sudoeste 0 -- -- 52
2018-08-28 09:00:00 20.8 17 Sudoeste 24 Sudoeste 0 -- -- 57
2018-08-28 08:00:00 20.8 18 Sudoeste 32 Sudoeste 0 -- -- 55
2018-08-28 07:00:00 21.2 19 Sudoeste 29 Sur 0 -- -- 51
2018-08-28 06:00:00 21.8 18 Sudoeste 30 Sudoeste 0 -- -- 47
2018-08-28 05:00:00 22.8 24 Sudoeste 34 Sur 0 -- -- 35
2018-08-28 04:00:00 23.2 14 Sudeste 21 Sudeste 0 -- -- 32
2018-08-28 03:00:00 24 10 Sudeste 18 Sudeste 0 -- -- 30
2018-08-28 02:00:00 24.5 11 Sudeste 16 Sudeste 0 -- -- 30
2018-08-28 01:00:00 24.3 13 Sudeste 17 Sudeste 0 -- -- 30
2018-08-28 00:00:00 22.6 3 Sudeste 8 Sudeste 0 -- -- 32
2018-08-27 23:00:00 21.7 0 Calma 4 Sur 0 -- -- 35
2018-08-27 22:00:00 24.1 5 Sudoeste 6 Sudoeste 0 -- -- 31
2018-08-27 21:00:00 27.9 2 Noroeste 11 Oeste 0 -- -- 26
2018-08-27 20:00:00 30.2 9 Oeste 19 Sudoeste 0 -- -- 23
2018-08-27 19:00:00 31.1 13 Sudoeste 39 Sudoeste 0 -- -- 22
2018-08-27 18:00:00 30.6 30 Sudoeste 48 Sudoeste 0 -- -- 21
2018-08-27 17:00:00 33.1 21 Sudoeste 30 Sudoeste 0 -- -- 17
2018-08-27 16:00:00 32.9 8 Sur 40 Sudoeste 0 -- -- 18
2018-08-27 15:00:00 32.4 9 Sur 22 Oeste 0 -- -- 18
2018-08-27 14:00:00 30.5 7 Este 19 Nordeste 0 -- -- 26
2018-08-27 13:00:00 28.7 4 Este 13 Este 0 -- -- 30
2018-08-27 12:00:00 25.3 6 Nordeste 11 Norte 0 -- -- 37
2018-08-27 11:00:00 22.4 7 Norte 12 Nordeste 0 -- -- 44
2018-08-27 10:00:00 20 5 Norte 7 Norte 0 -- -- 53
2018-08-27 09:00:00 17.4 5 Norte 7 Norte 0 -- -- 61
2018-08-27 08:00:00 13.6 3 Norte 5 Norte 0 -- -- 65
2018-08-27 07:00:00 14.1 3 Sudoeste 3 Sudoeste 0 -- -- 60
2018-08-27 06:00:00 14.3 2 Sudoeste 4 Sudoeste 0 -- -- 57
2018-08-27 05:00:00 15 2 Sudoeste 4 Sudoeste 0 -- -- 53
2018-08-27 04:00:00 15.7 3 Sudoeste 4 Sudoeste 0 -- -- 51
2018-08-27 03:00:00 16.3 2 Sudoeste 4 Sudoeste 0 -- -- 50
2018-08-27 02:00:00 16.8 2 Sudoeste 4 Sudoeste 0 -- -- 49
2018-08-27 01:00:00 19 2 Sudoeste 5 Sudeste 0 -- -- 43
2018-08-27 00:00:00 19.7 2 Sur 5 Este 0 -- -- 42
2018-08-26 23:00:00 22.8 2 Oeste 11 Oeste 0 -- -- 36
2018-08-26 22:00:00 23.1 0 Calma 8 Norte 0 -- -- 36
2018-08-26 21:00:00 27.4 6 Noroeste 15 Noroeste 0 -- -- 30
2018-08-26 20:00:00 30.2 9 Noroeste 23 Noroeste 0 -- -- 26
2018-08-26 19:00:00 30.9 9 Oeste 23 Oeste 0 -- -- 25
2018-08-26 18:00:00 30.5 9 Oeste 20 Oeste 0 -- -- 25
2018-08-26 17:00:00 29.8 5 Norte 27 Oeste 0 -- -- 27
2018-08-26 16:00:00 29.2 6 Sudoeste 18 Sudoeste 0 -- -- 29
2018-08-26 15:00:00 28 9 Noroeste 15 Oeste 0 -- -- 31
2018-08-26 14:00:00 25.5 4 Nordeste 17 Norte 0 -- -- 36
2018-08-26 13:00:00 23.4 8 Norte 15 Nordeste 0 -- -- 41
2018-08-26 12:00:00 20.5 9 Norte 16 Norte 0 -- -- 49
2018-08-26 11:00:00 17.5 9 Norte 13 Norte 0 -- -- 57
2018-08-26 10:00:00 15.4 8 Nordeste 11 Norte 0 -- -- 63
2018-08-26 09:00:00 13.1 5 Norte 8 Norte 0 -- -- 72
2018-08-26 08:00:00 10.6 3 Norte 9 Norte 0 -- -- 78
2018-08-26 07:00:00 10.9 6 Norte 9 Norte 0 -- -- 77
2018-08-26 06:00:00 11.9 8 Nordeste 12 Nordeste 0 -- -- 76
2018-08-26 05:00:00 12.8 9 Nordeste 13 Norte 0 -- -- 72
2018-08-26 04:00:00 13.6 10 Nordeste 14 Nordeste 0 -- -- 69
2018-08-26 03:00:00 14.8 11 Nordeste 14 Nordeste 0 -- -- 64
2018-08-26 02:00:00 14.6 8 Este 12 Este 0 -- -- 56
2018-08-26 01:00:00 17.5 10 Este 17 Este 0 -- -- 47
2018-08-26 00:00:00 19.6 5 Este 12 Sudeste 0 -- -- 39
2018-08-25 23:00:00 18.7 9 Este 10 Nordeste 0 -- -- 42
2018-08-25 22:00:00 19.7 5 Nordeste 9 Nordeste 0 -- -- 40
2018-08-25 21:00:00 23.7 8 Norte 18 Norte 0 -- -- 31
2018-08-25 20:00:00 26.1 11 Norte 18 Norte 0 -- -- 30
2018-08-25 19:00:00 26.8 13 Norte 19 Nordeste 0 -- -- 29
2018-08-25 18:00:00 26.8 6 Este 23 Nordeste 0 -- -- 30
2018-08-25 17:00:00 27 8 Norte 38 Nordeste 0 -- -- 31
2018-08-25 16:00:00 26 10 Norte 23 Nordeste 0 -- -- 32
2018-08-25 15:00:00 24.3 8 Nordeste 21 Norte 0 -- -- 40
2018-08-25 14:00:00 22.6 12 Nordeste 22 Nordeste 0 -- -- 46
2018-08-25 13:00:00 21.1 12 Norte 20 Nordeste 0 -- -- 51
2018-08-25 12:00:00 19 10 Nordeste 19 Nordeste 0 -- -- 59
2018-08-25 11:00:00 17.1 12 Nordeste 25 Este 0 -- -- 65
2018-08-25 10:00:00 14.9 11 Norte 15 Norte 0 -- -- 73
2018-08-25 09:00:00 12.7 6 Norte 10 Norte 0 -- -- 82
2018-08-25 08:00:00 10.7 8 Norte 11 Norte 0 -- -- 87
2018-08-25 07:00:00 11 8 Norte 12 Norte 0 -- -- 85
2018-08-25 06:00:00 11.9 8 Norte 12 Norte 0 -- -- 84
2018-08-25 05:00:00 12.4 8 Norte 11 Norte 0 -- -- 83
2018-08-25 04:00:00 13.7 9 Norte 12 Norte 0 -- -- 78
2018-08-25 03:00:00 15.1 6 Norte 22 Nordeste 0 -- -- 69
2018-08-25 02:00:00 16.9 16 Nordeste 23 Nordeste 0 -- -- 58
2018-08-25 01:00:00 17.9 14 Nordeste 18 Este 0 -- -- 45
2018-08-25 00:00:00 18.8 3 Sur 4 Sudeste 0 -- -- 42
2018-08-24 23:00:00 19.7 0 Calma 7 Norte 0 -- -- 40
2018-08-24 22:00:00 21 3 Sur 6 Este 0 -- -- 36
2018-08-24 21:00:00 24.3 6 Este 14 Nordeste 0 -- -- 35
2018-08-24 20:00:00 27.4 10 Nordeste 18 Noroeste 0 -- -- 29
2018-08-24 19:00:00 28.8 10 Norte 22 Noroeste 0 -- -- 28
2018-08-24 18:00:00 29.4 13 Norte 26 Noroeste 0 -- -- 26
2018-08-24 17:00:00 29.6 13 Noroeste 41 Noroeste 0 -- -- 26
2018-08-24 16:00:00 28.2 9 Oeste 22 Noroeste 0 -- -- 28
2018-08-24 15:00:00 26.2 7 Nordeste 16 Norte 0 -- -- 35
2018-08-24 14:00:00 24.9 7 Nordeste 17 Nordeste 0 -- -- 38
2018-08-24 13:00:00 23.3 9 Nordeste 20 Nordeste 0 -- -- 47
2018-08-24 12:00:00 21.9 12 Nordeste 24 Nordeste 0 -- -- 54
2018-08-24 11:00:00 19.8 10 Nordeste 17 Este 0 -- -- 65
2018-08-24 10:00:00 17.3 9 Este 14 Nordeste 0 -- -- 75
2018-08-24 09:00:00 14.9 4 Norte 12 Norte 0 -- -- 86
2018-08-24 08:00:00 13 6 Norte 9 Norte 0 -- -- 89
2018-08-24 07:00:00 13.9 8 Nordeste 10 Norte 0 -- -- 86
2018-08-24 06:00:00 15 5 Norte 10 Norte 0 -- -- 81
2018-08-24 05:00:00 16.2 8 Nordeste 14 Nordeste 0 -- -- 80
2018-08-24 04:00:00 17.7 9 Norte 17 Nordeste 0 -- -- 74
2018-08-24 03:00:00 19.2 13 Nordeste 22 Norte 0 -- -- 67
2018-08-24 02:00:00 20.1 13 Nordeste 26 Nordeste 0 -- -- 63
2018-08-24 01:00:00 21.6 17 Nordeste 32 Nordeste 0 -- -- 57
2018-08-24 00:00:00 23.9 20 Nordeste 31 Nordeste 0 -- -- 43
2018-08-23 23:00:00 24.3 4 Noroeste 11 Norte 0 -- -- 33
2018-08-23 22:00:00 25.2 4 Oeste 9 Oeste 0 -- -- 30
2018-08-23 21:00:00 28.5 7 Oeste 15 Noroeste 0 -- -- 25
2018-08-23 20:00:00 31.6 12 Noroeste 23 Noroeste 0 -- -- 24
2018-08-23 19:00:00 31.7 12 Norte 26 Noroeste 0 -- -- 26
2018-08-23 18:00:00 32.3 8 Noroeste 33 Norte 0 -- -- 25
2018-08-23 17:00:00 32.5 15 Noroeste 27 Noroeste 0 -- -- 27
2018-08-23 16:00:00 31.8 16 Noroeste 26 Noroeste 0 -- -- 30
2018-08-23 15:00:00 30.9 12 Noroeste 23 Norte 0 -- -- 33
2018-08-23 14:00:00 29 10 Noroeste 21 Noroeste 0 -- -- 39
2018-08-23 13:00:00 27.1 10 Norte 19 Noroeste 0 -- -- 45
2018-08-23 12:00:00 25 9 Norte 13 Noroeste 0 -- -- 51
2018-08-23 11:00:00 22.6 3 Noroeste 9 Noroeste 0 -- -- 57
2018-08-23 10:00:00 20.4 5 Noroeste 14 Noroeste 0 -- -- 62
2018-08-23 09:00:00 19.1 5 Oeste 10 Oeste 0 -- -- 58
2018-08-23 08:00:00 16.9 3 Sudoeste 10 Sudoeste 0 -- -- 62
2018-08-23 07:00:00 17.4 5 Oeste 12 Sudoeste 0 -- -- 59
2018-08-23 06:00:00 17.7 6 Sudoeste 12 Sudoeste 0 -- -- 57
2018-08-23 05:00:00 17.8 7 Sudoeste 11 Sudoeste 0 -- -- 56
2018-08-23 04:00:00 17.9 6 Sur 10 Sur 0 -- -- 56
2018-08-23 03:00:00 17.8 3 Sudoeste 6 Noroeste 0 -- -- 55
2018-08-23 02:00:00 18.7 2 Sur 12 Sudeste 0 -- -- 51
2018-08-23 01:00:00 21.1 4 Noroeste 11 Oeste 0 -- -- 46
2018-08-23 00:00:00 21.1 10 Sudoeste 12 Sudoeste 0 -- -- 47